Time;durP1;ratioP1;P1;durP2;ratioP2;P2;SDS_P1;SDS_P2;PMS_P1;PMS_P2;Temp;Humidity;BMP_temperature;BMP_pressure;BME280_temperature;BME280_humidity;BME280_pressure;Samples;Min_cycle;Max_cycle;Signal;HPM_P1;HPM_P2
2021/06/28 00:01:25;;;;;;;5.40;5.10;;;22.70;40.10;;;;;;4879973;29;20210;-80
2021/06/28 00:03:53;;;;;;;5.10;4.80;;;22.70;40.10;;;;;;4864089;29;20202;-79
2021/06/28 00:06:18;;;;;;;4.90;4.60;;;22.70;40.90;;;;;;4880397;29;20660;-79
2021/06/28 00:08:44;;;;;;;5.03;4.73;;;22.70;40.10;;;;;;4880472;29;20418;-78
2021/06/28 00:11:10;;;;;;;5.20;4.90;;;22.70;40.10;;;;;;4863093;29;20277;-78
2021/06/28 00:13:37;;;;;;;5.60;5.20;;;22.60;40.00;;;;;;4880336;29;20202;-79
2021/06/28 00:16:04;;;;;;;5.57;5.27;;;22.60;40.00;;;;;;4865029;29;20422;-80
2021/06/28 00:18:30;;;;;;;4.73;4.43;;;22.70;40.10;;;;;;4866798;29;20438;-79
2021/06/28 00:20:56;;;;;;;5.50;5.20;;;22.60;40.80;;;;;;4866181;29;20478;-79
2021/06/28 00:23:22;;;;;;;4.77;4.57;;;22.60;40.00;;;;;;4866583;29;20293;-79
2021/06/28 00:25:48;;;;;;;4.57;4.37;;;22.60;40.10;;;;;;4866044;29;20422;-80
2021/06/28 00:28:14;;;;;;;5.47;5.07;;;22.60;40.00;;;;;;4882597;29;20483;-79
2021/06/28 00:30:41;;;;;;;4.90;4.50;;;22.60;40.00;;;;;;4883041;29;20490;-78
2021/06/28 00:33:10;;;;;;;4.93;4.63;;;22.60;40.00;;;;;;4882794;29;20212;-78
2021/06/28 00:35:36;;;;;;;4.77;4.50;;;22.60;40.10;;;;;;4865615;29;20842;-79
2021/06/28 00:38:02;;;;;;;4.80;4.50;;;22.60;40.00;;;;;;4882985;29;20427;-78
2021/06/28 00:40:28;;;;;;;5.00;4.70;;;22.60;40.10;;;;;;4865740;29;20258;-79
2021/06/28 00:42:54;;;;;;;5.00;4.70;;;22.60;40.00;;;;;;4865421;29;20530;-79
2021/06/28 00:45:31;;;;;;;4.90;4.60;;;22.60;40.00;;;;;;4865625;29;20638;-79
2021/06/28 00:48:00;;;;;;;4.47;4.27;;;22.60;40.00;;;;;;4882233;29;20422;-79
2021/06/28 00:50:28;;;;;;;5.17;4.87;;;22.60;40.00;;;;;;4881640;29;20419;-80
2021/06/28 00:53:02;;;;;;;4.47;4.27;;;22.60;40.00;;;;;;4881708;29;20442;-79
2021/06/28 00:55:28;;;;;;;4.77;4.57;;;22.60;40.00;;;;;;4881612;29;20458;-79
2021/06/28 00:57:54;;;;;;;5.10;4.80;;;22.60;40.00;;;;;;4881584;29;20441;-79
2021/06/28 01:00:21;;;;;;;5.10;4.80;;;22.60;40.00;;;;;;4865036;29;20423;-78
2021/06/28 01:02:47;;;;;;;5.07;4.77;;;22.60;40.00;;;;;;4880957;29;20202;-79
2021/06/28 01:05:19;;;;;;;4.80;4.50;;;22.60;40.00;;;;;;4864454;29;21026;-78
2021/06/28 01:07:46;;;;;;;4.37;4.07;;;22.60;40.00;;;;;;4880814;29;20505;-79
2021/06/28 01:10:12;;;;;;;4.37;4.17;;;22.60;40.00;;;;;;4880586;29;20441;-78
2021/06/28 01:12:39;;;;;;;5.33;4.97;;;22.60;40.00;;;;;;4863950;29;20529;-78
2021/06/28 01:15:05;;;;;;;5.50;5.20;;;22.60;40.70;;;;;;4880392;29;20625;-78
2021/06/28 01:17:32;;;;;;;4.40;4.20;;;22.60;40.00;;;;;;4880478;29;20414;-78
2021/06/28 01:20:04;;;;;;;4.53;4.33;;;22.60;40.00;;;;;;4864057;29;20430;-79
2021/06/28 01:22:32;;;;;;;4.83;4.53;;;22.60;40.00;;;;;;4881142;29;20859;-78
2021/06/28 01:24:59;;;;;;;4.53;4.33;;;22.60;40.00;;;;;;4882791;29;20433;-79
2021/06/28 01:27:28;;;;;;;4.60;4.40;;;22.60;40.00;;;;;;4881975;29;20446;-79
2021/06/28 01:29:55;;;;;;;4.57;4.37;;;22.60;40.00;;;;;;4882776;29;20415;-80
2021/06/28 01:32:22;;;;;;;4.70;4.50;;;22.60;40.00;;;;;;4882736;29;20442;-79
2021/06/28 01:34:48;;;;;;;4.80;4.53;;;22.60;40.00;;;;;;4866331;29;20458;-80
2021/06/28 01:37:25;;;;;;;4.80;4.50;;;22.50;39.90;;;;;;4865752;29;20465;-79
2021/06/28 01:39:53;;;;;;;4.43;4.23;;;22.60;40.00;;;;;;4866420;29;20415;-79
2021/06/28 01:42:19;;;;;;;4.67;4.47;;;22.60;40.00;;;;;;4866119;29;20880;-80
2021/06/28 01:44:45;;;;;;;4.90;4.70;;;22.50;39.90;;;;;;4882896;29;20421;-80
2021/06/28 01:47:10;;;;;;;4.37;4.17;;;22.50;39.80;;;;;;4882647;29;20968;-80
2021/06/28 01:49:36;;;;;;;4.00;3.80;;;22.50;39.80;;;;;;4882413;29;20190;-80
2021/06/28 01:52:03;;;;;;;4.90;4.60;;;22.50;39.80;;;;;;4882225;29;20204;-80
2021/06/28 01:54:32;;;;;;;4.77;4.57;;;22.50;39.80;;;;;;4865723;29;20517;-80
2021/06/28 01:57:00;;;;;;;4.33;4.13;;;22.50;39.90;;;;;;4882006;29;20847;-79
2021/06/28 01:59:31;;;;;;;5.03;4.70;;;22.50;39.90;;;;;;4882245;29;20418;-80
2021/06/28 02:01:57;;;;;;;4.00;3.80;;;22.50;39.80;;;;;;4864910;29;20427;-79
2021/06/28 02:04:24;;;;;;;4.40;4.20;;;22.50;39.90;;;;;;4882102;29;20469;-80
2021/06/28 02:06:50;;;;;;;4.17;3.97;;;22.50;39.80;;;;;;4881790;29;20787;-79
2021/06/28 02:09:16;;;;;;;4.37;4.17;;;22.50;39.90;;;;;;4881744;29;20421;-80
2021/06/28 02:11:42;;;;;;;4.13;3.93;;;22.50;39.80;;;;;;4881479;29;20182;-80
2021/06/28 02:14:08;;;;;;;3.93;3.80;;;22.50;39.80;;;;;;4881754;29;20454;-79
2021/06/28 02:16:34;;;;;;;4.70;4.50;;;22.50;39.80;;;;;;4865383;29;20513;-80
2021/06/28 02:19:00;;;;;;;4.17;3.97;;;22.50;39.80;;;;;;4881966;29;20204;-80
2021/06/28 02:21:26;;;;;;;4.00;3.80;;;22.50;39.70;;;;;;4881674;29;20411;-80
2021/06/28 02:23:51;;;;;;;3.80;3.70;;;22.50;39.70;;;;;;4881889;29;20688;-79
2021/06/28 02:26:17;;;;;;;4.60;4.40;;;22.50;39.80;;;;;;4865169;29;20483;-80
2021/06/28 02:28:45;;;;;;;4.30;4.10;;;22.50;39.80;;;;;;4881796;29;20217;-79
2021/06/28 02:31:17;;;;;;;4.43;4.23;;;22.50;39.70;;;;;;4881667;29;20185;-80
2021/06/28 02:33:44;;;;;;;4.23;4.03;;;22.50;39.70;;;;;;4864993;29;20533;-80
2021/06/28 02:36:10;;;;;;;4.20;3.80;;;22.50;39.80;;;;;;4882238;29;20419;-80
2021/06/28 02:38:36;;;;;;;4.47;4.27;;;22.50;39.80;;;;;;4865212;29;20808;-80
2021/06/28 02:41:04;;;;;;;3.90;3.70;;;22.50;39.80;;;;;;4864619;29;20586;-80
2021/06/28 02:43:30;;;;;;;4.50;4.30;;;22.50;39.80;;;;;;4864869;29;20477;-80
2021/06/28 02:45:57;;;;;;;4.23;4.03;;;22.50;39.80;;;;;;4881778;29;20410;-80
2021/06/28 02:48:23;;;;;;;4.10;3.90;;;22.50;39.80;;;;;;4864850;29;20425;-79
2021/06/28 02:50:50;;;;;;;4.47;4.27;;;22.50;39.80;;;;;;4880539;29;20411;-79
2021/06/28 02:53:17;;;;;;;3.97;3.80;;;22.50;39.80;;;;;;4864301;29;20473;-80
2021/06/28 02:55:45;;;;;;;3.80;3.60;;;22.50;39.70;;;;;;4880918;29;20462;-80
2021/06/28 02:58:10;;;;;;;4.50;4.30;;;22.50;39.80;;;;;;4864223;29;20423;-79
2021/06/28 03:00:36;;;;;;;4.30;4.10;;;22.50;39.80;;;;;;4881091;29;20419;-80
2021/06/28 03:03:02;;;;;;;4.43;4.17;;;22.50;39.70;;;;;;4881122;29;20268;-78
2021/06/28 03:05:28;;;;;;;4.33;4.13;;;22.50;39.70;;;;;;4865059;29;20208;-79
2021/06/28 03:07:54;;;;;;;3.77;3.57;;;22.50;39.70;;;;;;4881355;29;20410;-79
2021/06/28 03:10:20;;;;;;;4.30;4.10;;;22.50;39.80;;;;;;4881027;29;20185;-79
2021/06/28 03:12:45;;;;;;;3.47;3.33;;;22.50;39.70;;;;;;4880984;29;20953;-80
2021/06/28 03:15:15;;;;;;;4.40;4.20;;;22.50;39.70;;;;;;4880524;29;20213;-79
2021/06/28 03:17:40;;;;;;;4.60;4.40;;;22.50;39.70;;;;;;4880806;29;20209;-80
2021/06/28 03:20:10;;;;;;;4.10;3.90;;;22.50;39.70;;;;;;4880809;29;20471;-80
2021/06/28 03:22:38;;;;;;;4.00;3.80;;;22.50;39.70;;;;;;4880771;29;20202;-80
2021/06/28 03:25:05;;;;;;;3.73;3.57;;;22.50;39.70;;;;;;4880922;29;20418;-79
2021/06/28 03:27:31;;;;;;;4.33;4.13;;;22.50;39.70;;;;;;4863927;29;20450;-79
2021/06/28 03:29:57;;;;;;;4.57;4.27;;;22.50;39.70;;;;;;4881019;29;20418;-79
2021/06/28 03:32:22;;;;;;;4.00;3.80;;;22.50;39.70;;;;;;4879993;29;20284;-79
2021/06/28 03:34:48;;;;;;;4.30;4.10;;;22.50;39.70;;;;;;4880602;29;20907;-79
2021/06/28 03:37:13;;;;;;;3.97;3.77;;;22.50;39.70;;;;;;4880455;29;20184;-80
2021/06/28 03:39:39;;;;;;;3.63;3.53;;;22.50;39.70;;;;;;4864182;29;20273;-80
2021/06/28 03:42:05;;;;;;;4.27;4.07;;;22.50;39.90;;;;;;4864039;29;20301;-79
2021/06/28 03:44:30;;;;;;;4.37;4.17;;;22.50;39.70;;;;;;4880343;29;20281;-79
2021/06/28 03:46:56;;;;;;;4.07;3.87;;;22.50;39.70;;;;;;4880105;29;20178;-79
2021/06/28 03:49:22;;;;;;;3.83;3.70;;;22.50;39.60;;;;;;4886244;29;20186;-79
2021/06/28 03:51:48;;;;;;;4.27;4.07;;;22.50;39.70;;;;;;4891256;29;20661;-79
2021/06/28 03:54:13;;;;;;;4.27;4.07;;;22.50;39.60;;;;;;4891927;29;20464;-78
2021/06/28 03:56:39;;;;;;;4.03;3.83;;;22.50;39.60;;;;;;4883352;29;20186;-80
2021/06/28 03:59:05;;;;;;;4.07;3.87;;;22.50;39.70;;;;;;4883186;29;20637;-79
2021/06/28 04:01:30;;;;;;;4.27;4.07;;;22.50;39.70;;;;;;4883100;29;20174;-80
2021/06/28 04:03:56;;;;;;;4.47;4.27;;;22.50;39.70;;;;;;4866142;29;20288;-79
2021/06/28 04:06:23;;;;;;;4.37;4.17;;;22.50;39.70;;;;;;4882686;29;20550;-78
2021/06/28 04:08:49;;;;;;;3.87;3.73;;;22.50;39.70;;;;;;4882827;29;20174;-78
2021/06/28 04:11:17;;;;;;;4.57;4.37;;;22.50;39.70;;;;;;4865666;29;20820;-79
2021/06/28 04:13:43;;;;;;;4.43;4.17;;;22.50;39.70;;;;;;4882719;29;20732;-78
2021/06/28 04:16:08;;;;;;;4.40;4.20;;;22.50;39.70;;;;;;4866581;29;20461;-79
2021/06/28 04:18:34;;;;;;;4.53;4.23;;;22.50;39.90;;;;;;4867366;29;20318;-79
2021/06/28 04:21:00;;;;;;;4.70;4.50;;;22.50;40.50;;;;;;4866576;29;20174;-78
2021/06/28 04:23:25;;;;;;;4.43;4.20;;;22.60;41.40;;;;;;4883452;29;20198;-80
2021/06/28 04:25:51;;;;;;;4.53;4.27;;;22.60;41.50;;;;;;4882399;29;20277;-79
2021/06/28 04:28:16;;;;;;;5.10;4.90;;;22.60;41.80;;;;;;4865890;29;20246;-80
2021/06/28 04:30:42;;;;;;;4.80;4.60;;;22.60;41.70;;;;;;4883199;29;20748;-79
2021/06/28 04:33:08;;;;;;;4.93;4.63;;;22.60;41.80;;;;;;4866810;29;20578;-79
2021/06/28 04:35:33;;;;;;;4.50;4.30;;;22.60;41.70;;;;;;4866146;29;20209;-79
2021/06/28 04:37:59;;;;;;;5.10;4.90;;;22.60;41.80;;;;;;4882375;29;20717;-79
2021/06/28 04:40:27;;;;;;;4.20;4.03;;;22.70;42.00;;;;;;4882281;29;20805;-79
2021/06/28 04:42:53;;;;;;;4.60;4.40;;;22.70;42.00;;;;;;4864970;29;20764;-78
2021/06/28 04:45:20;;;;;;;4.33;4.13;;;22.70;42.30;;;;;;4882036;29;20419;-80
2021/06/28 04:47:46;;;;;;;4.70;4.50;;;22.70;42.20;;;;;;4859041;29;20448;-80
2021/06/28 04:50:13;;;;;;;5.30;4.50;;;22.70;42.70;;;;;;4849012;29;20849;-80
2021/06/28 04:52:40;;;;;;;4.40;4.20;;;22.60;42.20;;;;;;4865382;29;20506;-80
2021/06/28 04:55:08;;;;;;;4.87;4.67;;;22.70;42.30;;;;;;4849572;29;20463;-79
2021/06/28 04:57:34;;;;;;;4.30;4.00;;;22.70;42.40;;;;;;4850057;29;20852;-80
2021/06/28 05:00:07;;;;;;;4.60;4.40;;;22.70;42.40;;;;;;4848926;29;20431;-80
2021/06/28 05:02:33;;;;;;;5.30;5.00;;;22.70;42.40;;;;;;4848078;29;20458;-79
2021/06/28 05:04:59;;;;;;;4.90;4.70;;;22.70;42.50;;;;;;4849020;29;20814;-79
2021/06/28 05:07:25;;;;;;;4.37;4.17;;;22.70;42.70;;;;;;4849097;29;20231;-81
2021/06/28 05:09:51;;;;;;;4.73;4.50;;;22.70;42.80;;;;;;4846939;29;20638;-79
2021/06/28 05:12:17;;;;;;;4.50;4.10;;;22.70;42.70;;;;;;4863378;29;20443;-80
2021/06/28 05:14:43;;;;;;;5.10;4.73;;;22.70;42.60;;;;;;4863402;29;20214;-78
2021/06/28 05:17:09;;;;;;;4.77;4.53;;;22.70;42.70;;;;;;4846349;29;20432;-78
2021/06/28 05:19:35;;;;;;;4.90;4.50;;;22.70;42.70;;;;;;4849188;29;20430;-78
2021/06/28 05:22:02;;;;;;;4.07;3.87;;;22.60;42.60;;;;;;4865457;29;20428;-79
2021/06/28 05:24:27;;;;;;;4.47;4.27;;;22.60;42.60;;;;;;4865197;29;20411;-79
2021/06/28 05:26:53;;;;;;;5.00;4.50;;;22.60;42.60;;;;;;4848180;29;20451;-79
2021/06/28 05:29:18;;;;;;;4.97;4.57;;;22.60;42.60;;;;;;4864137;29;20214;-78
2021/06/28 05:31:44;;;;;;;4.57;4.37;;;22.60;42.60;;;;;;4848323;29;20191;-80
2021/06/28 05:34:18;;;;;;;4.40;4.20;;;22.60;42.60;;;;;;4866541;29;20206;-83
2021/06/28 05:36:44;;;;;;;5.43;5.03;;;22.60;42.40;;;;;;4849399;29;20653;-79
2021/06/28 05:39:10;;;;;;;5.30;5.00;;;22.60;42.40;;;;;;4849549;29;20455;-79
2021/06/28 05:41:36;;;;;;;5.40;5.07;;;22.60;42.60;;;;;;4848905;29;20201;-80
2021/06/28 05:44:01;;;;;;;4.60;4.30;;;22.60;43.00;;;;;;4867333;29;20301;-79
2021/06/28 05:46:27;;;;;;;11.40;5.20;;;22.60;42.60;;;;;;4849863;29;20186;-79
2021/06/28 05:48:53;;;;;;;4.97;4.67;;;22.70;42.70;;;;;;4866022;29;20657;-79
2021/06/28 05:51:20;;;;;;;6.30;4.73;;;22.70;42.70;;;;;;4849950;29;20187;-80
2021/06/28 05:53:47;;;;;;;5.67;5.20;;;22.70;42.80;;;;;;4866425;29;20487;-80
2021/06/28 05:56:13;;;;;;;5.90;5.00;;;22.70;42.90;;;;;;4849832;29;20423;-79
2021/06/28 05:58:40;;;;;;;5.70;5.30;;;22.70;42.90;;;;;;4849931;29;20424;-80
2021/06/28 06:01:06;;;;;;;5.70;5.30;;;22.70;42.70;;;;;;4865795;29;20419;-79
2021/06/28 06:03:33;;;;;;;9.60;6.00;;;22.70;42.90;;;;;;4865805;29;20431;-80
2021/06/28 06:06:06;;;;;;;5.90;5.50;;;22.70;43.10;;;;;;4849780;29;20796;-79
2021/06/28 06:08:35;;;;;;;7.13;6.53;;;22.70;43.40;;;;;;4849176;29;20495;-80
2021/06/28 06:11:04;;;;;;;5.03;4.73;;;22.70;43.30;;;;;;4849048;29;20438;-82
2021/06/28 06:13:30;;;;;;;6.30;5.70;;;22.70;43.50;;;;;;4848871;29;20504;-78
2021/06/28 06:16:02;;;;;;;5.53;5.10;;;22.70;43.60;;;;;;4864717;29;20550;-80
2021/06/28 06:18:28;;;;;;;7.23;6.00;;;22.70;43.40;;;;;;4865127;29;20183;-80
2021/06/28 06:20:56;;;;;;;7.83;5.57;;;22.70;43.20;;;;;;4863828;29;20508;-80
2021/06/28 06:23:22;;;;;;;5.40;5.10;;;22.70;43.40;;;;;;4864813;29;20548;-81
2021/06/28 06:25:47;;;;;;;5.27;4.97;;;22.70;43.50;;;;;;4847006;29;20431;-79
2021/06/28 06:28:18;;;;;;;5.17;4.83;;;22.80;43.50;;;;;;4863756;29;20198;-79
2021/06/28 06:30:45;;;;;;;5.90;5.27;;;22.80;43.50;;;;;;4847182;29;20193;-79
2021/06/28 06:33:11;;;;;;;6.00;5.60;;;22.80;43.60;;;;;;4847898;29;20444;-80
2021/06/28 06:35:37;;;;;;;5.80;5.30;;;22.80;43.70;;;;;;4864598;29;20822;-80
2021/06/28 06:38:04;;;;;;;4.80;4.60;;;22.80;43.70;;;;;;4846129;29;20273;-78
2021/06/28 06:40:31;;;;;;;5.20;4.80;;;22.80;43.50;;;;;;4863779;29;20175;-80
2021/06/28 06:42:58;;;;;;;5.10;4.70;;;22.80;43.70;;;;;;4864258;29;20435;-78
2021/06/28 06:45:25;;;;;;;4.93;4.63;;;22.80;43.50;;;;;;4847642;29;20912;-80
2021/06/28 06:47:50;;;;;;;4.80;4.50;;;22.80;43.60;;;;;;4865026;29;20427;-80
2021/06/28 06:50:18;;;;;;;4.53;4.23;;;22.80;43.60;;;;;;4864986;29;20795;-80
2021/06/28 06:52:46;;;;;;;5.30;4.40;;;22.80;43.20;;;;;;4863886;29;20199;-79
2021/06/28 06:55:12;;;;;;;5.00;4.80;;;22.80;43.10;;;;;;4862642;29;20527;-79
2021/06/28 06:57:38;;;;;;;4.77;4.47;;;22.80;42.80;;;;;;4845593;29;20420;-78
2021/06/28 07:00:13;;;;;;;4.37;4.17;;;22.80;42.70;;;;;;4845990;29;20783;-79
2021/06/28 07:02:39;;;;;;;4.40;4.20;;;22.80;42.80;;;;;;4861523;29;20442;-79
2021/06/28 07:05:05;;;;;;;5.00;4.70;;;22.80;42.80;;;;;;4862038;29;20480;-78
2021/06/28 07:07:36;;;;;;;4.90;4.13;;;22.80;42.70;;;;;;4847364;29;20930;-80
2021/06/28 07:10:06;;;;;;;5.00;4.60;;;22.80;42.80;;;;;;4863697;29;20423;-79
2021/06/28 07:12:32;;;;;;;5.63;5.00;;;22.90;42.90;;;;;;4848666;29;20801;-80
2021/06/28 07:14:58;;;;;;;7.73;4.43;;;22.90;42.90;;;;;;4849583;29;20495;-80
2021/06/28 07:17:23;;;;;;;5.13;4.83;;;22.90;42.80;;;;;;4848873;29;20181;-80
2021/06/28 07:19:49;;;;;;;5.57;5.13;;;22.80;42.80;;;;;;4865964;29;20184;-80
2021/06/28 07:22:15;;;;;;;5.50;5.10;;;22.90;42.90;;;;;;4849145;29;20198;-79
2021/06/28 07:24:41;;;;;;;5.40;5.20;;;22.90;42.90;;;;;;4865404;29;20211;-80
2021/06/28 07:27:06;;;;;;;5.17;4.87;;;22.90;42.90;;;;;;4851826;29;20451;-81
2021/06/28 07:29:32;;;;;;;5.47;4.97;;;22.90;42.90;;;;;;4869236;29;20675;-80
2021/06/28 07:31:57;;;;;;;6.00;5.50;;;22.90;42.90;;;;;;4852541;29;20555;-80
2021/06/28 07:34:23;;;;;;;5.60;5.20;;;22.90;42.90;;;;;;4851848;29;20205;-77
2021/06/28 07:36:49;;;;;;;5.87;5.57;;;22.90;42.90;;;;;;4867480;29;20665;-79
2021/06/28 07:39:14;;;;;;;5.67;5.13;;;22.90;43.00;;;;;;4850321;29;20786;-79
2021/06/28 07:41:40;;;;;;;5.23;4.93;;;22.90;42.90;;;;;;4868125;29;20755;-79
2021/06/28 07:44:07;;;;;;;6.10;5.70;;;22.90;42.90;;;;;;4867271;29;20274;-79
2021/06/28 07:46:33;;;;;;;5.67;5.13;;;22.90;42.90;;;;;;4852356;29;20277;-80
2021/06/28 07:48:59;;;;;;;6.13;5.60;;;22.90;42.80;;;;;;4867625;29;20518;-79
2021/06/28 07:51:24;;;;;;;5.80;5.40;;;22.90;42.90;;;;;;4867587;29;20439;-79
2021/06/28 07:53:50;;;;;;;6.13;5.73;;;22.90;42.90;;;;;;4867247;29;20262;-79
2021/06/28 07:56:19;;;;;;;5.33;5.03;;;22.90;42.90;;;;;;4851123;29;20187;-79
2021/06/28 07:58:46;;;;;;;6.33;5.73;;;22.90;42.90;;;;;;4867986;29;20183;-79
2021/06/28 08:01:12;;;;;;;5.40;4.90;;;22.90;42.90;;;;;;4866709;29;20422;-79
2021/06/28 08:03:47;;;;;;;5.67;5.37;;;22.90;42.80;;;;;;4866728;29;20443;-79
2021/06/28 08:06:17;;;;;;;6.77;6.13;;;22.90;42.70;;;;;;4850017;29;20190;-79
2021/06/28 08:08:44;;;;;;;5.30;4.90;;;22.90;42.80;;;;;;4866553;29;20429;-79
2021/06/28 08:11:11;;;;;;;5.23;4.90;;;23.00;42.70;;;;;;4848950;29;20511;-79
2021/06/28 08:13:39;;;;;;;5.30;4.90;;;23.00;42.70;;;;;;4847319;29;20545;-79
2021/06/28 08:16:05;;;;;;;6.20;5.80;;;23.00;42.70;;;;;;4863790;29;20479;-79
2021/06/28 08:18:31;;;;;;;5.20;4.97;;;23.00;42.60;;;;;;4849627;29;20938;-79
2021/06/28 08:20:57;;;;;;;6.30;6.00;;;23.00;42.30;;;;;;4865987;29;20455;-79
2021/06/28 08:23:23;;;;;;;5.00;4.80;;;23.00;42.40;;;;;;4848709;29;20816;-78
2021/06/28 08:25:49;;;;;;;5.17;4.80;;;23.00;42.40;;;;;;4848839;29;20191;-79
2021/06/28 08:28:15;;;;;;;6.50;5.87;;;23.00;41.70;;;;;;4848281;29;20447;-79
2021/06/28 08:30:40;;;;;;;6.00;5.60;;;23.00;41.90;;;;;;4865184;29;20661;-79
2021/06/28 08:33:06;;;;;;;5.40;5.13;;;23.00;41.80;;;;;;4849309;29;20218;-80
2021/06/28 08:35:33;;;;;;;5.20;4.90;;;23.00;41.30;;;;;;4865379;29;20303;-80
2021/06/28 08:37:58;;;;;;;5.37;5.07;;;23.00;41.50;;;;;;4848605;29;20178;-79
2021/06/28 08:40:24;;;;;;;6.60;6.10;;;23.00;41.50;;;;;;4848424;29;20450;-79
2021/06/28 08:42:49;;;;;;;5.10;4.90;;;23.00;41.50;;;;;;4847686;29;20229;-78
2021/06/28 08:45:15;;;;;;;8.10;5.60;;;23.00;41.40;;;;;;4847485;29;20190;-78
2021/06/28 08:47:42;;;;;;;5.40;5.10;;;23.00;41.50;;;;;;4847718;29;20202;-78
2021/06/28 08:50:10;;;;;;;5.27;5.07;;;23.00;41.60;;;;;;4879134;29;20807;-79
2021/06/28 08:52:39;;;;;;;5.43;5.03;;;23.00;41.40;;;;;;4864970;29;20463;-78
2021/06/28 08:55:07;;;;;;;5.90;5.50;;;23.00;41.20;;;;;;4848986;29;20471;-79
2021/06/28 08:57:33;;;;;;;6.07;5.67;;;23.00;41.40;;;;;;4848614;29;20924;-78
2021/06/28 09:00:09;;;;;;;6.20;5.90;;;23.00;41.30;;;;;;4851746;29;20432;-80
2021/06/28 09:02:36;;;;;;;6.30;5.80;;;23.10;41.50;;;;;;4863370;29;20460;-78
2021/06/28 09:05:07;;;;;;;5.50;5.20;;;23.00;41.20;;;;;;4848840;29;20427;-79
2021/06/28 09:07:33;;;;;;;5.90;5.50;;;23.10;41.20;;;;;;4849034;29;20213;-80
2021/06/28 09:09:59;;;;;;;5.90;5.50;;;23.00;41.00;;;;;;4849356;29;20985;-79
2021/06/28 09:12:25;;;;;;;5.30;5.00;;;23.10;41.10;;;;;;4849588;29;20462;-79
2021/06/28 09:14:54;;;;;;;5.30;5.10;;;23.10;41.00;;;;;;4850388;29;20206;-81
2021/06/28 09:17:38;;;;;;;5.17;4.87;;;23.10;41.00;;;;;;4865770;29;20938;-80
2021/06/28 09:20:28;;;;;;;5.33;4.93;;;23.10;40.30;;;;;;4867092;29;20419;-79
2021/06/28 09:22:53;;;;;;;5.10;4.90;;;23.10;40.20;;;;;;4850404;29;20485;-79
2021/06/28 09:25:33;;;;;;;5.17;4.87;;;23.10;40.20;;;;;;4849879;29;20435;-79
2021/06/28 09:28:00;;;;;;;5.27;4.97;;;23.10;40.80;;;;;;4850257;29;20291;-80
2021/06/28 09:30:27;;;;;;;5.30;5.00;;;23.10;40.70;;;;;;4866648;29;20530;-79
2021/06/28 09:32:58;;;;;;;5.47;4.97;;;23.10;40.50;;;;;;4865999;29;20478;-79
2021/06/28 09:35:39;;;;;;;6.97;6.57;;;23.10;40.60;;;;;;4849474;29;20243;-79
2021/06/28 09:38:45;;;;;;;5.57;5.37;;;23.10;40.60;;;;;;4865560;29;20411;-80
2021/06/28 09:41:33;;;;;;;5.40;5.20;;;23.10;39.70;;;;;;4849474;29;20408;-84
2021/06/28 09:44:02;;;;;;;5.77;5.47;;;23.10;40.00;;;;;;4865082;29;20435;-80
2021/06/28 09:46:27;;;;;;;5.97;5.67;;;23.10;40.40;;;;;;4849071;29;20419;-82
2021/06/28 09:48:54;;;;;;;5.53;5.13;;;23.10;40.30;;;;;;4849437;29;20441;-81
2021/06/28 09:51:26;;;;;;;5.93;5.53;;;23.20;40.40;;;;;;4864748;29;20261;-80
2021/06/28 09:54:06;;;;;;;7.03;6.73;;;23.20;40.30;;;;;;4862978;29;21026;-83
2021/06/28 09:56:33;;;;;;;6.40;6.00;;;23.20;39.90;;;;;;4848468;29;20439;-84
2021/06/28 09:59:17;;;;;;;6.83;6.30;;;23.20;40.20;;;;;;4849155;29;20438;-82
2021/06/28 10:01:43;;;;;;;7.07;6.43;;;23.20;40.20;;;;;;4866861;29;20419;-80
2021/06/28 10:04:08;;;;;;;6.20;5.70;;;23.20;40.10;;;;;;4848455;29;20491;-80
2021/06/28 10:06:35;;;;;;;6.23;5.73;;;23.20;40.10;;;;;;4844312;29;20654;-80
2021/06/28 10:09:08;;;;;;;8.10;5.80;;;23.20;40.00;;;;;;4867289;29;20190;-83
2021/06/28 10:11:42;;;;;;;6.60;6.00;;;23.20;39.90;;;;;;4850026;29;20457;-81
2021/06/28 10:14:08;;;;;;;6.33;5.93;;;23.20;39.90;;;;;;4848811;29;20482;-82
2021/06/28 10:16:37;;;;;;;9.03;5.57;;;23.20;39.80;;;;;;4865994;29;20420;-83
2021/06/28 10:19:05;;;;;;;6.57;6.13;;;23.20;39.60;;;;;;4850623;29;20488;-83
2021/06/28 10:21:32;;;;;;;6.10;5.77;;;23.20;39.70;;;;;;4849980;29;20419;-79
2021/06/28 10:23:59;;;;;;;6.23;5.73;;;23.20;39.40;;;;;;4866368;29;20958;-82
2021/06/28 10:26:25;;;;;;;6.00;5.60;;;23.20;38.90;;;;;;4866518;29;20436;-80
2021/06/28 10:28:51;;;;;;;5.90;5.60;;;23.30;39.20;;;;;;4850348;29;20426;-83
2021/06/28 10:31:17;;;;;;;5.80;5.40;;;23.30;38.80;;;;;;4850542;29;20193;-82
2021/06/28 10:33:51;;;;;;;5.60;5.40;;;23.30;38.70;;;;;;4867144;29;20439;-80
2021/06/28 10:36:19;;;;;;;5.70;5.40;;;23.30;37.70;;;;;;4866483;29;20170;-83
2021/06/28 10:38:50;;;;;;;6.50;6.03;;;23.30;37.40;;;;;;4864624;29;20419;-82
2021/06/28 10:41:42;;;;;;;5.90;5.60;;;23.40;38.00;;;;;;4864861;29;20417;-80
2021/06/28 10:44:11;;;;;;;6.23;5.93;;;23.30;38.20;;;;;;4864754;29;20419;-82
2021/06/28 10:46:38;;;;;;;5.93;5.53;;;23.30;38.30;;;;;;4863795;29;20819;-82
2021/06/28 10:49:05;;;;;;;5.60;5.40;;;23.30;38.40;;;;;;4864963;29;20432;-83
2021/06/28 10:51:50;;;;;;;5.93;5.70;;;23.40;38.50;;;;;;4848442;29;20426;-83
2021/06/28 10:54:18;;;;;;;5.80;5.60;;;23.40;38.60;;;;;;4864283;29;20464;-82
2021/06/28 10:56:53;;;;;;;5.90;5.40;;;23.40;38.40;;;;;;4864936;29;20411;-80
2021/06/28 10:59:24;;;;;;;5.90;5.60;;;23.40;38.80;;;;;;4847742;29;20781;-80
2021/06/28 11:02:01;;;;;;;6.00;5.70;;;23.40;38.70;;;;;;4863164;29;20464;-80
2021/06/28 11:04:33;;;;;;;5.77;5.47;;;23.40;39.60;;;;;;4865681;29;20434;-81
2021/06/28 11:07:05;;;;;;;5.83;5.63;;;23.40;38.70;;;;;;4864346;29;20459;-82
2021/06/28 11:09:50;;;;;;;5.77;5.57;;;23.40;38.40;;;;;;4864091;29;20786;-81
2021/06/28 11:12:22;;;;;;;5.70;5.40;;;23.50;38.10;;;;;;4863851;29;20447;-83
2021/06/28 11:14:52;;;;;;;5.60;5.40;;;23.50;37.30;;;;;;4862401;29;20470;-82
2021/06/28 11:17:22;;;;;;;6.43;6.13;;;23.60;37.50;;;;;;4861033;29;20403;-80
2021/06/28 11:22:34;;;;;;;6.20;5.70;;;23.60;37.80;;;;;;4860519;29;20439;-81
2021/06/28 11:25:13;;;;;;;6.10;5.70;;;23.50;38.10;;;;;;4861429;29;20415;-80
2021/06/28 11:27:57;;;;;;;6.30;6.00;;;23.50;37.70;;;;;;4843872;29;20447;-80
2021/06/28 11:30:27;;;;;;;5.83;5.50;;;23.50;37.60;;;;;;4860915;29;20503;-79
2021/06/28 11:33:05;;;;;;;6.33;6.03;;;23.60;37.70;;;;;;4859968;29;20530;-79
2021/06/28 11:35:45;;;;;;;5.33;5.13;;;23.60;37.80;;;;;;4861015;29;20470;-78
2021/06/28 11:38:35;;;;;;;6.30;6.00;;;23.50;38.20;;;;;;4844678;29;20844;-81
2021/06/28 11:41:09;;;;;;;6.10;5.80;;;23.50;38.60;;;;;;4843401;29;20428;-79
2021/06/28 11:43:36;;;;;;;5.57;5.27;;;23.60;38.00;;;;;;4829857;29;20451;-79
2021/06/28 11:46:02;;;;;;;5.57;5.27;;;23.50;38.20;;;;;;4860753;29;20915;-80
2021/06/28 11:48:41;;;;;;;5.57;5.20;;;23.50;38.00;;;;;;4861272;29;20942;-78
2021/06/28 11:51:30;;;;;;;5.67;5.30;;;23.60;38.00;;;;;;4862418;29;20419;-80
2021/06/28 11:54:09;;;;;;;5.53;5.23;;;23.60;38.00;;;;;;4861598;29;20867;-79
2021/06/28 11:56:37;;;;;;;5.97;5.67;;;23.50;38.00;;;;;;4862154;29;20407;-80
2021/06/28 11:59:08;;;;;;;6.53;6.03;;;23.50;38.10;;;;;;4861688;29;20431;-80
2021/06/28 12:01:53;;;;;;;6.10;5.80;;;23.50;38.10;;;;;;4862340;29;20784;-79
2021/06/28 12:04:20;;;;;;;6.10;5.80;;;23.50;38.40;;;;;;4845589;29;20949;-80
2021/06/28 12:06:48;;;;;;;5.60;5.40;;;23.50;38.30;;;;;;4862157;29;20424;-78
2021/06/28 12:09:17;;;;;;;5.70;5.50;;;23.50;38.60;;;;;;4863478;29;20911;-80
2021/06/28 12:11:53;;;;;;;6.17;5.80;;;23.50;38.50;;;;;;4846775;29;20462;-79
2021/06/28 12:14:40;;;;;;;5.67;5.47;;;23.50;38.80;;;;;;4867997;29;20493;-79
2021/06/28 12:17:13;;;;;;;6.30;6.00;;;23.50;38.70;;;;;;4866912;29;20446;-80
2021/06/28 12:19:46;;;;;;;6.30;5.90;;;23.50;38.80;;;;;;4851551;29;20431;-81
2021/06/28 12:22:15;;;;;;;6.03;5.83;;;23.50;38.90;;;;;;4866903;29;20442;-81
2021/06/28 12:24:46;;;;;;;5.57;5.37;;;23.50;39.10;;;;;;4867134;29;20415;-80
2021/06/28 12:27:24;;;;;;;5.93;5.63;;;23.50;39.40;;;;;;4850591;29;20450;-81
2021/06/28 12:29:52;;;;;;;6.33;5.93;;;23.50;39.40;;;;;;4850196;29;20448;-78
2021/06/28 12:32:37;;;;;;;6.30;5.80;;;23.50;39.60;;;;;;4849549;29;20443;-80
2021/06/28 12:35:29;;;;;;;6.07;5.77;;;23.50;39.40;;;;;;4866068;29;20519;-81
2021/06/28 12:38:01;;;;;;;6.10;5.80;;;23.60;39.60;;;;;;4849771;29;20462;-81
2021/06/28 12:40:41;;;;;;;6.27;5.87;;;23.60;39.60;;;;;;4867498;29;20427;-82
2021/06/28 12:43:11;;;;;;;6.07;5.70;;;23.60;39.40;;;;;;4848783;29;20447;-80
2021/06/28 12:45:40;;;;;;;7.90;5.80;;;23.60;39.50;;;;;;4850002;29;20424;-82
2021/06/28 12:48:26;;;;;;;7.67;6.90;;;23.60;39.70;;;;;;4849908;29;20436;-81
2021/06/28 12:50:58;;;;;;;6.40;6.00;;;23.50;39.60;;;;;;4849013;29;20424;-82
2021/06/28 12:53:26;;;;;;;7.80;7.10;;;23.50;39.60;;;;;;4866743;29;20495;-80
2021/06/28 12:56:07;;;;;;;8.10;7.53;;;23.50;39.60;;;;;;4864989;29;20519;-80
2021/06/28 12:58:46;;;;;;;7.10;6.67;;;23.50;40.10;;;;;;4865084;29;20427;-80